Sandytown, Indiana
Current Conditions -  °F | °C
As of 7:35 AM on Friday 31 Oct 2014 (Local Time) from KPRG Reporting Station
Overcast Overcast  
Wind Chill: 39°   Ceiling: 5500
Heat Index: 44°   Visibility: 7mi
Dew Point: 42°   Wind: 9mph
Humidity: 92%   Direction: 310°NW
Pressure: 30.05"   Gusts: NA
Location:  39.6513°N, 87.4607°W
Report Text: KPRG 311135Z AUTO 31008KT 7SM SCT049 OVC055 07/06 A3005 RMK AO2 T00680056
Loading
Personal Weather Stations






























Interactive Weather Map
Tropical Storm Tracking
New forecast layout! Learn more

10-Day Weather Forecast

Advertisements
Track Severe Weather on mobile